createdAt,value
2018-09-13T00:05:47.260Z,9.30
2018-09-13T00:06:52.946Z,9.50
2018-09-13T00:07:47.135Z,5.90
2018-09-13T00:08:47.112Z,6.00
2018-09-13T00:09:47.082Z,9.50
2018-09-13T00:10:48.067Z,7.90
2018-09-13T00:11:47.039Z,9.60
2018-09-13T00:12:49.013Z,7.80
2018-09-13T00:13:46.977Z,8.80
2018-09-13T00:14:48.971Z,6.10
2018-09-13T00:15:46.929Z,7.80
2018-09-13T00:16:52.439Z,8.20
2018-09-13T00:17:46.870Z,6.50
2018-09-13T00:18:52.454Z,7.50
2018-09-13T00:19:46.830Z,8.40
2018-09-13T00:20:47.806Z,13.10
2018-09-13T00:21:46.780Z,6.10
2018-09-13T00:22:46.762Z,6.00
2018-09-13T00:23:46.747Z,7.90
2018-09-13T00:24:47.707Z,7.00
2018-09-13T00:25:46.686Z,9.90
2018-09-13T00:26:51.433Z,9.70
2018-09-13T00:27:46.638Z,8.10
2018-09-13T00:28:47.620Z,5.80
2018-09-13T00:29:46.570Z,8.90
2018-09-13T00:30:46.559Z,8.10
2018-09-13T00:31:46.526Z,8.40
2018-09-13T00:32:47.518Z,8.40
2018-09-13T00:33:47.428Z,9.90
2018-09-13T00:34:46.467Z,8.50
2018-09-13T00:35:46.437Z,10.90
2018-09-13T00:36:46.408Z,8.00
2018-09-13T00:37:46.387Z,10.20
2018-09-13T00:39:40.726Z,9.50
2018-09-13T00:40:40.675Z,8.40
2018-09-13T00:41:40.637Z,7.70
2018-09-13T00:42:40.629Z,9.90
2018-09-13T00:43:40.594Z,8.20
2018-09-13T00:44:41.576Z,9.20
2018-09-13T00:45:40.564Z,7.10
2018-09-13T00:46:40.526Z,8.60
2018-09-13T00:47:40.506Z,8.00
2018-09-13T00:48:40.477Z,7.90
2018-09-13T00:49:40.442Z,10.60
2018-09-13T00:50:40.417Z,9.30
2018-09-13T00:51:40.423Z,10.90
2018-09-13T00:52:40.371Z,6.90
2018-09-13T00:53:40.338Z,9.10
2018-09-13T00:54:40.329Z,8.10
2018-09-13T00:55:40.293Z,8.00
2018-09-13T00:56:40.273Z,8.00
2018-09-13T00:57:40.255Z,10.80
2018-09-13T00:58:40.245Z,9.20
2018-09-13T00:59:40.191Z,8.10
2018-09-13T01:00:40.185Z,8.50
2018-09-13T01:01:40.145Z,5.90
2018-09-13T01:02:40.130Z,6.40
2018-09-13T01:03:40.092Z,6.50
2018-09-13T01:04:40.072Z,11.50
2018-09-13T01:05:40.038Z,7.60
2018-09-13T01:06:41.039Z,9.30
2018-09-13T01:07:39.992Z,6.90
2018-09-13T01:08:39.977Z,7.60
2018-09-13T01:09:39.937Z,8.20
2018-09-13T01:10:39.945Z,8.30
2018-09-13T01:11:39.900Z,6.90
2018-09-13T01:12:39.864Z,9.80
2018-09-13T01:13:39.846Z,10.40
2018-09-13T01:14:40.848Z,9.60
2018-09-13T01:15:39.789Z,10.70
2018-09-13T01:16:39.775Z,8.80
2018-09-13T01:17:39.734Z,7.70
2018-09-13T01:18:39.730Z,9.50
2018-09-13T01:19:39.685Z,10.80
2018-09-13T01:20:40.671Z,7.50
2018-09-13T01:21:39.636Z,8.90
2018-09-13T01:22:39.621Z,15.40
2018-09-13T01:23:39.589Z,11.00
2018-09-13T01:25:28.455Z,12.10
2018-09-13T01:26:28.389Z,9.60
2018-09-13T01:27:28.380Z,9.10
2018-09-13T01:28:28.356Z,11.10
2018-09-13T01:29:28.328Z,11.00
2018-09-13T01:30:28.297Z,11.30
2018-09-13T01:31:28.273Z,9.60
2018-09-13T01:32:28.237Z,8.90
2018-09-13T01:33:29.222Z,7.40
2018-09-13T01:34:28.194Z,8.80
2018-09-13T01:35:28.174Z,10.90
2018-09-13T01:36:28.141Z,9.70
2018-09-13T01:37:28.119Z,9.90
2018-09-13T01:38:28.093Z,12.20
2018-09-13T01:39:28.070Z,9.20
2018-09-13T01:40:28.050Z,10.70
2018-09-13T01:41:28.036Z,9.50
2018-09-13T01:42:28.001Z,8.80
2018-09-13T01:43:27.976Z,13.60
2018-09-13T01:44:27.963Z,12.00
2018-09-13T01:45:27.915Z,9.80
2018-09-13T01:46:27.887Z,7.80
2018-09-13T01:47:27.878Z,9.00
2018-09-13T01:48:27.847Z,7.20
2018-09-13T01:49:27.824Z,7.00
2018-09-13T01:50:27.784Z,8.90
2018-09-13T01:51:27.769Z,8.00
2018-09-13T01:52:27.741Z,9.60
2018-09-13T01:53:27.729Z,7.70
2018-09-13T01:54:27.683Z,11.40
2018-09-13T01:55:28.671Z,7.60
2018-09-13T01:56:27.638Z,8.90
2018-09-13T01:58:20.524Z,14.20
2018-09-13T01:59:21.473Z,12.70
2018-09-13T02:00:20.442Z,9.40
2018-09-13T02:01:20.436Z,7.60
2018-09-13T02:02:20.397Z,10.00
2018-09-13T02:03:21.377Z,7.80
2018-09-13T02:04:20.338Z,8.20
2018-09-13T02:05:20.315Z,8.40
2018-09-13T02:06:20.302Z,12.30
2018-09-13T02:07:20.275Z,10.50
2018-09-13T02:08:20.240Z,9.70
2018-09-13T02:09:20.226Z,15.60
2018-09-13T02:10:20.192Z,9.30
2018-09-13T02:11:20.197Z,9.40
2018-09-13T02:12:20.158Z,10.90
2018-09-13T02:13:20.114Z,11.70
2018-09-13T02:14:20.092Z,10.80
2018-09-13T02:15:21.074Z,9.90
2018-09-13T02:16:20.035Z,10.60
2018-09-13T02:17:21.018Z,10.40
2018-09-13T02:18:19.983Z,8.50
2018-09-13T02:19:19.961Z,11.10
2018-09-13T02:20:19.941Z,10.80
2018-09-13T02:21:20.926Z,12.50
2018-09-13T02:22:19.881Z,14.10
2018-09-13T02:23:19.866Z,12.00
2018-09-13T02:24:19.827Z,10.50
2018-09-13T02:25:20.813Z,13.50
2018-09-13T02:26:19.776Z,11.80
2018-09-13T02:27:19.800Z,13.80
2018-09-13T02:28:19.740Z,12.70
2018-09-13T02:29:19.720Z,11.70
2018-09-13T02:30:19.675Z,11.90
2018-09-13T02:31:19.666Z,18.40
2018-09-13T02:32:19.626Z,11.90
2018-09-13T02:33:19.610Z,10.80
2018-09-13T02:34:19.579Z,12.50
2018-09-13T02:35:19.560Z,14.10
2018-09-13T02:36:19.524Z,11.80
2018-09-13T02:37:19.504Z,12.40
2018-09-13T02:38:19.477Z,11.50
2018-09-13T02:39:19.457Z,12.00
2018-09-13T02:40:19.428Z,12.10
2018-09-13T02:41:19.407Z,11.50
2018-09-13T02:42:19.388Z,11.30
2018-09-13T02:43:19.359Z,12.40
2018-09-13T02:44:19.323Z,13.20
2018-09-13T02:45:21.314Z,17.40
2018-09-13T02:46:19.272Z,13.60
2018-09-13T02:47:20.251Z,11.90
2018-09-13T02:48:19.235Z,11.70
2018-09-13T02:49:19.304Z,10.30
2018-09-13T02:50:19.171Z,12.30
2018-09-13T02:51:20.159Z,18.50
2018-09-13T02:52:19.116Z,12.00
2018-09-13T02:53:20.111Z,9.80
2018-09-13T02:54:19.079Z,12.30
2018-09-13T02:55:21.046Z,13.20
2018-09-13T02:56:19.019Z,13.00
2018-09-13T02:57:21.003Z,12.60
2018-09-13T02:58:18.969Z,9.70
2018-09-13T02:59:18.953Z,12.70
2018-09-13T03:00:18.912Z,14.10
2018-09-13T03:01:19.905Z,11.00
2018-09-13T03:02:18.867Z,11.80
2018-09-13T03:03:18.875Z,10.10
2018-09-13T03:04:18.814Z,12.30
2018-09-13T03:05:18.787Z,13.10
2018-09-13T03:06:18.765Z,12.20
2018-09-13T03:07:18.736Z,13.90
2018-09-13T03:08:18.790Z,12.90
2018-09-13T03:09:21.265Z,12.30
2018-09-13T03:10:18.661Z,12.60
2018-09-13T03:11:18.643Z,11.70
2018-09-13T03:12:18.623Z,9.40
2018-09-13T03:13:18.605Z,17.30
2018-09-13T03:14:18.562Z,11.50
2018-09-13T03:15:18.541Z,12.90
2018-09-13T03:16:18.508Z,12.20
2018-09-13T03:17:18.494Z,11.80
2018-09-13T03:18:18.458Z,13.70
2018-09-13T03:19:18.445Z,12.60
2018-09-13T03:20:18.410Z,11.50
2018-09-13T03:21:18.406Z,13.40
2018-09-13T03:22:18.361Z,13.90
2018-09-13T03:23:18.341Z,16.50
2018-09-13T03:24:18.302Z,16.50
2018-09-13T03:25:18.287Z,12.50
2018-09-13T03:26:18.259Z,10.20
2018-09-13T03:27:18.238Z,12.10
2018-09-13T03:28:18.205Z,16.50
2018-09-13T03:29:18.187Z,12.20
2018-09-13T03:30:18.169Z,10.60
2018-09-13T03:31:18.139Z,13.80
2018-09-13T03:32:18.131Z,14.00
2018-09-13T03:33:18.093Z,12.90
2018-09-13T03:34:18.060Z,15.40
2018-09-13T03:35:18.034Z,12.90
2018-09-13T03:36:18.079Z,12.80
2018-09-13T03:37:18.065Z,10.90
2018-09-13T03:38:17.956Z,13.00
2018-09-13T03:39:17.993Z,14.70
2018-09-13T03:40:17.969Z,13.30
2018-09-13T03:41:18.891Z,13.80
2018-09-13T03:42:17.861Z,17.40
2018-09-13T03:43:17.841Z,15.90
2018-09-13T03:44:17.809Z,13.30
2018-09-13T03:45:17.788Z,14.10
2018-09-13T03:46:17.755Z,13.90
2018-09-13T03:47:17.726Z,9.70
2018-09-13T03:48:17.697Z,11.20
2018-09-13T12:03:16.038Z,14.50
2018-09-13T12:04:15.944Z,7.60
2018-09-13T12:05:20.733Z,11.00
2018-09-13T12:06:15.913Z,7.00
2018-09-13T12:07:15.881Z,8.30
2018-09-13T12:08:15.844Z,8.00
2018-09-13T12:09:16.825Z,7.00
2018-09-13T12:10:15.788Z,7.50
2018-09-13T12:11:15.778Z,9.40
2018-09-13T12:12:15.755Z,6.70
2018-09-13T12:13:20.685Z,13.60
2018-09-13T12:14:15.703Z,8.30
2018-09-13T12:15:20.233Z,8.80
2018-09-13T12:16:15.640Z,7.20
2018-09-13T12:17:15.619Z,10.80
2018-09-13T12:18:15.644Z,6.70
2018-09-13T12:19:15.656Z,9.10
2018-09-13T12:20:15.547Z,7.10
2018-09-13T12:21:16.527Z,6.70
2018-09-13T12:22:15.614Z,7.80
2018-09-13T12:23:15.468Z,5.80
2018-09-13T12:24:15.470Z,5.90
2018-09-13T12:25:18.818Z,13.60
2018-09-13T12:26:23.582Z,8.30
2018-09-13T12:27:18.795Z,8.30
2018-09-13T12:28:18.727Z,6.60
2018-09-13T12:29:18.709Z,9.80
2018-09-13T12:30:19.676Z,7.90
2018-09-13T12:31:18.657Z,6.70
2018-09-13T12:32:18.619Z,7.70
2018-09-13T12:33:18.594Z,7.10
2018-09-13T12:34:18.575Z,5.60
2018-09-13T12:35:18.544Z,8.20
2018-09-13T12:36:25.077Z,6.40
2018-09-13T12:37:18.498Z,7.90
2018-09-13T12:38:20.494Z,8.30
2018-09-13T12:39:18.458Z,8.70
2018-09-13T12:41:09.067Z,9.90
2018-09-13T12:42:09.996Z,5.80
2018-09-13T12:43:08.970Z,8.00
2018-09-13T12:44:08.952Z,9.50
2018-09-13T12:45:08.918Z,6.00
2018-09-13T12:46:08.908Z,5.80
2018-09-13T12:47:08.864Z,4.80
2018-09-13T12:48:08.849Z,6.20
2018-09-13T12:49:08.820Z,6.70
2018-09-13T12:50:09.833Z,5.60
2018-09-13T12:51:08.775Z,6.30
2018-09-13T12:52:09.796Z,6.00
2018-09-13T12:53:08.717Z,5.60
2018-09-13T12:54:08.703Z,5.20
2018-09-13T12:55:08.705Z,4.00
2018-09-13T12:56:08.659Z,5.10
2018-09-13T12:57:08.632Z,6.50
2018-09-13T12:58:08.603Z,4.50
2018-09-13T12:59:08.573Z,6.00
2018-09-13T13:00:09.551Z,5.50
2018-09-13T13:01:08.529Z,7.70
2018-09-13T13:02:13.277Z,5.30
2018-09-13T13:03:08.465Z,7.90
2018-09-13T13:04:08.444Z,7.30
2018-09-13T13:05:08.417Z,4.40
2018-09-13T13:06:08.405Z,5.90
2018-09-13T13:07:08.375Z,4.30
2018-09-13T13:08:08.350Z,6.40
2018-09-13T13:09:08.347Z,6.60
2018-09-13T13:10:14.290Z,4.30
2018-09-13T13:11:08.275Z,5.10
2018-09-13T13:12:08.265Z,5.20
2018-09-13T13:13:08.220Z,6.20
2018-09-13T13:14:10.202Z,7.00
2018-09-13T13:15:08.213Z,6.10
2018-09-13T13:16:08.155Z,5.10
2018-09-13T13:17:08.117Z,7.20
2018-09-13T13:19:05.002Z,5.10
2018-09-13T13:20:06.969Z,4.50
2018-09-13T13:21:04.952Z,4.30
2018-09-13T13:22:05.922Z,4.50
2018-09-13T13:23:04.888Z,5.40
2018-09-13T13:24:04.858Z,4.30
2018-09-13T13:25:04.832Z,6.40
2018-09-13T13:26:05.815Z,5.50
2018-09-13T13:27:04.831Z,4.00
2018-09-13T13:28:06.766Z,5.20
2018-09-13T13:29:04.724Z,5.30
2018-09-13T13:30:04.724Z,5.50
2018-09-13T13:31:04.688Z,6.00
2018-09-13T13:32:06.680Z,5.40
2018-09-13T13:33:04.628Z,5.60
2018-09-13T13:34:04.608Z,5.30
2018-09-13T13:35:04.576Z,5.60
2018-09-13T13:36:04.572Z,7.20
2018-09-13T13:37:04.534Z,6.00
2018-09-13T13:38:04.508Z,7.50
2018-09-13T13:39:04.493Z,5.20
2018-09-13T13:40:05.491Z,5.10
2018-09-13T13:41:04.496Z,7.10
2018-09-13T13:42:04.414Z,4.80
2018-09-13T13:43:04.399Z,7.00
2018-09-13T13:45:02.239Z,7.00
2018-09-13T13:46:02.108Z,3.50
2018-09-13T13:47:02.130Z,2.80
2018-09-13T13:48:02.065Z,3.20
2018-09-13T13:49:02.068Z,2.50
2018-09-13T13:50:03.033Z,2.00
2018-09-13T13:51:02.017Z,2.50
2018-09-13T13:52:01.975Z,2.40
2018-09-13T13:53:01.937Z,5.80
2018-09-13T13:54:01.922Z,4.20
2018-09-13T13:55:01.924Z,3.70
2018-09-13T13:56:01.872Z,3.70
2018-09-13T13:57:01.928Z,3.00
2018-09-13T13:58:01.861Z,2.70
2018-09-13T13:59:01.803Z,3.90
2018-09-13T14:00:02.774Z,5.70
2018-09-13T14:01:01.799Z,4.70
2018-09-13T14:02:01.730Z,5.00
2018-09-13T14:03:01.699Z,3.60
2018-09-13T14:04:02.693Z,3.30
2018-09-13T14:05:01.648Z,4.80
2018-09-13T14:06:01.628Z,8.80
2018-09-13T14:07:01.599Z,4.50
2018-09-13T14:08:01.581Z,5.60
2018-09-13T14:09:01.557Z,3.90
2018-09-13T14:10:02.585Z,5.40
2018-09-13T14:11:01.496Z,3.70
2018-09-13T14:12:01.475Z,3.00
2018-09-13T14:13:01.473Z,5.00
2018-09-13T14:14:01.430Z,5.30
2018-09-13T14:15:01.449Z,4.70
2018-09-13T14:16:01.385Z,3.50
2018-09-13T14:17:01.359Z,4.70
2018-09-13T14:18:01.326Z,5.00
2018-09-13T14:19:01.303Z,3.70
2018-09-13T14:20:01.306Z,5.70
2018-09-13T14:21:01.264Z,5.30
2018-09-13T14:22:02.268Z,4.00
2018-09-13T14:23:01.236Z,5.20
2018-09-13T14:24:01.181Z,5.30
2018-09-13T14:25:47.399Z,5.80
2018-09-13T14:26:47.375Z,3.10
2018-09-13T14:27:47.334Z,6.00
2018-09-13T14:28:47.300Z,4.20
2018-09-13T14:29:47.349Z,4.40
2018-09-13T14:30:47.258Z,4.60
2018-09-13T14:31:47.233Z,3.10
2018-09-13T14:32:47.209Z,3.50
2018-09-13T14:33:47.182Z,3.40
2018-09-13T14:34:47.165Z,3.50
2018-09-13T14:35:47.126Z,3.20
2018-09-13T14:36:47.120Z,4.30
2018-09-13T14:37:47.101Z,4.10
2018-09-13T14:38:47.056Z,3.80
2018-09-13T14:39:47.031Z,5.50
2018-09-13T14:40:47.014Z,5.80
2018-09-13T14:41:46.979Z,5.10
2018-09-13T14:42:47.791Z,6.30
2018-09-13T14:43:46.942Z,4.70
2018-09-13T14:44:46.915Z,5.50
2018-09-13T14:45:46.919Z,5.30
2018-09-13T14:46:46.860Z,5.70
2018-09-13T14:47:46.844Z,5.40
2018-09-13T14:48:46.820Z,5.60
2018-09-13T14:49:46.879Z,6.00
2018-09-13T14:50:46.860Z,5.40
2018-09-13T14:51:46.731Z,8.30
2018-09-13T14:52:46.728Z,6.40
2018-09-13T14:53:46.687Z,7.00
2018-09-13T14:54:46.715Z,3.90
2018-09-13T14:55:46.634Z,5.50
2018-09-13T14:56:47.626Z,4.90
2018-09-13T14:57:46.576Z,3.40
2018-09-13T14:58:46.580Z,5.70
2018-09-13T14:59:46.537Z,3.70
2018-09-13T15:00:46.510Z,4.30
2018-09-13T15:01:46.481Z,6.30
2018-09-13T15:02:46.461Z,4.50
2018-09-13T15:03:46.460Z,6.90
2018-09-13T15:04:46.538Z,5.10
2018-09-13T15:05:46.390Z,5.10
2018-09-13T15:06:46.381Z,5.40
2018-09-13T15:07:46.338Z,6.00
2018-09-13T15:08:46.312Z,6.00
2018-09-13T15:09:46.302Z,8.80
2018-09-13T15:10:46.287Z,5.00
2018-09-13T15:11:46.235Z,5.30
2018-09-13T15:12:46.248Z,3.80
2018-09-13T15:13:46.195Z,4.10
2018-09-13T15:14:46.169Z,4.00
2018-09-13T15:15:46.135Z,4.20
2018-09-13T15:16:46.120Z,4.00
2018-09-13T15:17:46.099Z,4.50
2018-09-13T15:18:46.107Z,5.50
2018-09-13T15:19:46.044Z,5.80
2018-09-13T15:20:46.032Z,4.50
2018-09-13T15:21:46.008Z,5.40
2018-09-13T15:22:45.988Z,4.50
2018-09-13T15:23:45.950Z,4.10
2018-09-13T15:24:45.994Z,4.20
2018-09-13T15:25:45.901Z,4.50
2018-09-13T15:26:45.887Z,4.90
2018-09-13T15:27:45.847Z,4.90
2018-09-13T15:28:45.859Z,6.10
2018-09-13T15:29:45.810Z,6.10
2018-09-13T15:30:45.778Z,3.50
2018-09-13T15:31:45.750Z,3.30
2018-09-13T15:32:45.739Z,6.20
2018-09-13T15:33:45.710Z,6.60
2018-09-13T15:34:45.679Z,7.30
2018-09-13T15:35:45.665Z,6.60
2018-09-13T15:36:45.655Z,6.20
2018-09-13T15:37:45.604Z,6.50
2018-09-13T15:38:45.605Z,4.00
2018-09-13T15:39:45.554Z,4.80
2018-09-13T15:40:45.533Z,3.10
2018-09-13T15:41:45.510Z,5.10
2018-09-13T15:42:45.484Z,3.20
2018-09-13T15:43:45.494Z,7.70
2018-09-13T15:44:45.455Z,6.00
2018-09-13T15:45:45.415Z,6.20
2018-09-13T15:46:45.392Z,3.60
2018-09-13T15:47:45.365Z,4.90
2018-09-13T15:48:45.343Z,4.20
2018-09-13T15:49:45.312Z,4.50
2018-09-13T15:50:45.287Z,4.50
2018-09-13T15:51:45.258Z,7.00
2018-09-13T15:52:45.305Z,7.70
2018-09-13T15:53:45.240Z,3.80
2018-09-13T15:54:45.204Z,5.20
2018-09-13T15:55:45.162Z,4.00
2018-09-13T15:56:47.157Z,6.10
2018-09-13T15:57:45.123Z,5.50
2018-09-13T15:58:46.106Z,3.80
2018-09-13T15:59:45.075Z,4.40
2018-09-13T16:00:45.075Z,7.50
2018-09-13T16:01:45.037Z,3.80
2018-09-13T16:02:45.021Z,4.80
2018-09-13T16:03:44.975Z,5.70
2018-09-13T16:04:44.969Z,4.40
2018-09-13T16:05:44.929Z,5.10
2018-09-13T16:06:44.928Z,5.50
2018-09-13T16:07:44.873Z,3.60
2018-09-13T16:08:44.899Z,5.30
2018-09-13T16:09:44.834Z,5.10
2018-09-13T16:10:44.808Z,6.00
2018-09-13T16:11:44.775Z,4.70
2018-09-13T16:12:44.821Z,5.40
2018-09-13T16:13:44.723Z,4.10
2018-09-13T16:14:44.707Z,6.60
2018-09-13T16:15:44.682Z,7.60
2018-09-13T16:16:45.659Z,4.70
2018-09-13T16:17:44.628Z,6.10
2018-09-13T16:18:44.620Z,6.40
2018-09-13T16:19:44.582Z,5.90
2018-09-13T16:20:44.571Z,5.30
2018-09-13T16:21:44.532Z,4.40
2018-09-13T16:22:44.517Z,7.60
2018-09-13T16:23:44.482Z,5.70
2018-09-13T16:24:44.477Z,5.10
2018-09-13T16:25:44.445Z,5.40
2018-09-13T16:26:44.420Z,5.40
2018-09-13T16:27:44.390Z,6.10
2018-09-13T16:28:44.388Z,5.50
2018-09-13T16:29:44.334Z,5.10
2018-09-13T16:30:45.356Z,4.50
2018-09-13T16:31:44.309Z,4.20
2018-09-13T16:32:44.270Z,5.30
2018-09-13T16:33:44.266Z,5.40
2018-09-13T16:34:44.279Z,6.70
2018-09-13T16:35:44.187Z,7.40
2018-09-13T16:36:44.187Z,3.60
2018-09-13T16:37:44.148Z,6.00
2018-09-13T16:38:44.127Z,4.60
2018-09-13T16:40:34.013Z,22.20
2018-09-13T16:41:33.958Z,6.90
2018-09-13T16:42:33.948Z,8.50
2018-09-13T16:43:33.904Z,6.30
2018-09-13T16:44:33.876Z,5.90
2018-09-13T16:45:33.856Z,5.70
2018-09-13T16:46:33.833Z,5.50
2018-09-13T16:47:34.907Z,3.90
2018-09-13T16:48:33.801Z,5.60
2018-09-13T16:49:33.769Z,5.30
2018-09-13T16:50:33.752Z,5.40
2018-09-13T16:51:34.722Z,4.00
2018-09-13T16:52:33.715Z,5.20
2018-09-13T16:53:33.681Z,6.20
2018-09-13T16:54:33.650Z,5.50
2018-09-13T16:55:33.616Z,5.90
2018-09-13T16:56:33.641Z,5.80
2018-09-13T16:57:33.568Z,3.90
2018-09-13T16:58:33.592Z,7.40
2018-09-13T16:59:33.523Z,7.30
2018-09-13T17:00:33.505Z,10.20
2018-09-13T17:01:33.471Z,4.80
2018-09-13T17:02:33.481Z,4.40
2018-09-13T17:03:33.441Z,3.70
2018-09-13T17:05:19.642Z,12.60
2018-09-13T17:06:19.641Z,6.70
2018-09-13T17:07:19.685Z,8.00
2018-09-13T17:08:19.569Z,4.90
2018-09-13T17:09:19.600Z,6.50
2018-09-13T17:10:19.529Z,4.90
2018-09-13T17:11:19.506Z,6.00
2018-09-13T17:12:19.479Z,5.30
2018-09-13T17:13:19.513Z,7.60
2018-09-13T17:14:19.431Z,7.70
2018-09-13T17:15:19.434Z,6.00
2018-09-13T17:16:19.399Z,4.00
2018-09-13T17:17:20.494Z,5.00
2018-09-13T17:18:19.352Z,5.60
2018-09-13T17:19:19.317Z,5.20
2018-09-13T17:20:19.286Z,4.80
2018-09-13T17:21:19.259Z,7.20
2018-09-13T17:22:19.232Z,5.50
2018-09-13T17:23:19.282Z,6.80
2018-09-13T17:24:19.192Z,7.00
2018-09-13T17:25:19.153Z,4.00
2018-09-13T17:26:19.148Z,6.30
2018-09-13T17:27:19.122Z,6.70
2018-09-13T17:28:19.110Z,6.60
2018-09-13T17:29:19.074Z,7.20
2018-09-13T17:30:19.132Z,6.90
2018-09-13T17:31:19.021Z,9.60
2018-09-13T17:32:19.040Z,6.80
2018-09-13T17:33:19.012Z,3.80
2018-09-13T17:34:18.946Z,5.50
2018-09-13T17:35:18.968Z,5.00
2018-09-13T17:36:18.922Z,6.90
2018-09-13T17:37:18.888Z,5.50
2018-09-13T17:38:18.851Z,7.90
2018-09-13T17:39:18.841Z,6.80
2018-09-13T17:40:18.893Z,4.90
2018-09-13T17:42:05.354Z,9.30
2018-09-13T17:43:05.323Z,5.80
2018-09-13T17:44:05.302Z,5.90
2018-09-13T17:45:05.272Z,6.00
2018-09-13T17:46:05.248Z,6.20
2018-09-13T17:47:05.223Z,7.80
2018-09-13T17:48:05.260Z,8.70
2018-09-13T17:49:05.182Z,5.30
2018-09-13T17:50:05.162Z,8.70
2018-09-13T17:51:05.155Z,4.30
2018-09-13T17:52:05.186Z,5.50
2018-09-13T17:53:05.111Z,7.10
2018-09-13T17:54:09.673Z,5.50
2018-09-13T17:55:05.030Z,6.20
2018-09-13T17:56:05.073Z,5.10
2018-09-13T17:57:04.990Z,5.00
2018-09-13T17:58:04.965Z,8.20
2018-09-13T17:59:04.943Z,8.10
2018-09-13T18:00:05.011Z,5.10
2018-09-13T18:01:04.890Z,8.40
2018-09-13T18:02:04.960Z,7.70
2018-09-13T18:03:04.842Z,11.00
2018-09-13T18:04:04.816Z,6.00
2018-09-13T18:05:04.789Z,8.00
2018-09-13T18:06:04.771Z,5.80
2018-09-13T18:07:04.750Z,8.10
2018-09-13T18:08:04.773Z,8.60
2018-09-13T18:09:04.744Z,6.20
2018-09-13T18:10:04.763Z,6.10
2018-09-13T18:11:04.701Z,5.00
2018-09-13T18:12:04.693Z,5.20
2018-09-13T18:13:04.595Z,5.20
2018-09-13T18:14:04.710Z,6.10
2018-09-13T18:15:04.580Z,6.20
2018-09-13T18:16:04.594Z,5.30
2018-09-13T18:17:04.507Z,7.10
2018-09-13T18:18:04.487Z,6.40
2018-09-13T18:19:04.456Z,7.30
2018-09-13T18:20:04.445Z,6.60
2018-09-13T18:21:04.401Z,8.10
2018-09-13T18:22:04.391Z,6.70
2018-09-13T18:23:04.372Z,7.40
2018-09-13T18:24:04.374Z,7.80
2018-09-13T18:25:04.306Z,7.10
2018-09-13T18:26:04.293Z,6.00
2018-09-13T18:27:04.261Z,6.20
2018-09-13T18:28:04.374Z,7.50
2018-09-13T18:29:04.207Z,9.10
2018-09-13T18:30:04.279Z,7.90
2018-09-13T18:31:04.170Z,7.40
2018-09-13T18:32:04.136Z,8.30
2018-09-13T18:33:04.117Z,7.50
2018-09-13T18:34:04.094Z,7.10
2018-09-13T18:35:04.086Z,8.70
2018-09-13T18:36:04.063Z,7.20
2018-09-13T18:37:04.021Z,7.60
2018-09-13T18:38:04.073Z,10.10
2018-09-13T18:39:03.980Z,7.70
2018-09-13T18:40:03.967Z,9.10
2018-09-13T18:41:03.925Z,10.70
2018-09-13T18:42:50.064Z,8.70
2018-09-13T18:43:50.025Z,6.00
2018-09-13T18:45:43.639Z,10.30
2018-09-13T18:46:43.512Z,7.60
2018-09-13T18:47:43.472Z,6.90
2018-09-13T18:48:43.458Z,8.90
2018-09-13T18:49:43.427Z,12.20
2018-09-13T18:50:43.383Z,7.60
2018-09-13T18:51:43.381Z,8.30
2018-09-13T18:52:43.356Z,6.50
2018-09-13T18:53:43.425Z,7.20
2018-09-13T18:54:43.276Z,7.00
2018-09-13T18:55:43.269Z,6.70
2018-09-13T18:56:43.248Z,7.80
2018-09-13T18:57:43.279Z,9.40
2018-09-13T18:58:43.185Z,5.60
2018-09-13T18:59:43.275Z,5.80
2018-09-13T19:00:43.234Z,6.50
2018-09-13T19:01:43.111Z,6.70
2018-09-13T19:02:43.081Z,7.60
2018-09-13T19:03:43.176Z,7.90
2018-09-13T19:04:43.032Z,9.80
2018-09-13T19:05:43.014Z,7.50
2018-09-13T19:06:42.989Z,6.90
2018-09-13T19:07:42.990Z,12.60
2018-09-13T19:08:42.944Z,8.20
2018-09-13T19:09:42.905Z,10.10
2018-09-13T19:11:29.135Z,11.10
2018-09-13T19:12:29.018Z,8.60
2018-09-13T19:13:30.008Z,7.80
2018-09-13T19:14:28.967Z,6.20
2018-09-13T19:15:28.948Z,6.90
2018-09-13T19:16:29.006Z,7.90
2018-09-13T19:17:28.895Z,8.00
2018-09-13T19:18:28.928Z,5.30
2018-09-13T19:19:28.847Z,6.80
2018-09-13T19:20:28.929Z,6.40
2018-09-13T19:21:28.808Z,4.30
2018-09-13T19:22:29.867Z,5.10
2018-09-13T19:23:28.743Z,5.10
2018-09-13T19:24:28.856Z,6.70
2018-09-13T19:25:28.761Z,6.30
2018-09-13T19:27:25.828Z,16.50
2018-09-13T19:28:25.751Z,6.40
2018-09-13T19:29:25.705Z,10.50
2018-09-13T19:30:25.691Z,5.50
2018-09-13T19:31:25.657Z,10.50
2018-09-13T19:32:25.635Z,8.40
2018-09-13T19:33:25.614Z,6.90
2018-09-13T19:34:25.700Z,7.70
2018-09-13T19:35:25.577Z,6.90
2018-09-13T19:36:25.545Z,10.20
2018-09-13T19:37:25.630Z,8.90
2018-09-13T19:38:25.486Z,11.50
2018-09-13T19:39:25.571Z,6.40
2018-09-13T19:40:25.455Z,12.30
2018-09-13T19:41:25.550Z,8.30
2018-09-13T19:42:25.392Z,7.50
2018-09-13T19:43:25.380Z,9.00
2018-09-13T19:44:25.334Z,12.10
2018-09-13T19:45:25.328Z,7.30
2018-09-13T19:47:14.105Z,9.40
2018-09-13T19:48:14.024Z,9.00
2018-09-13T19:49:15.036Z,7.90
2018-09-13T19:50:13.897Z,11.30
2018-09-13T19:51:14.027Z,8.60
2018-09-13T19:52:13.847Z,7.60
2018-09-13T19:53:13.831Z,6.90
2018-09-13T19:54:13.794Z,7.10
2018-09-13T19:55:14.863Z,6.60
2018-09-13T19:56:13.743Z,10.80
2018-09-13T19:57:13.722Z,7.80
2018-09-13T19:58:14.786Z,7.20
2018-09-13T19:59:13.659Z,8.90
2018-09-13T20:00:13.646Z,6.90
2018-09-13T20:01:13.617Z,13.10
2018-09-13T20:02:13.592Z,11.10
2018-09-13T20:03:13.568Z,10.50
2018-09-13T20:04:14.631Z,9.50
2018-09-13T20:05:13.515Z,7.40
2018-09-13T20:06:14.528Z,8.10
2018-09-13T20:07:13.495Z,6.50
2018-09-13T20:08:13.442Z,7.20
2018-09-13T20:09:13.525Z,10.60
2018-09-13T20:10:13.389Z,8.40
2018-09-13T20:11:15.422Z,8.30
2018-09-13T20:12:13.359Z,10.40
2018-09-13T20:13:15.403Z,7.60
2018-09-13T20:14:13.362Z,9.70
2018-09-13T20:15:14.281Z,12.20
2018-09-13T20:16:13.240Z,7.30
2018-09-13T20:17:13.332Z,7.70
2018-09-13T20:18:13.306Z,9.60
2018-09-13T20:19:14.279Z,8.70
2018-09-13T20:20:13.173Z,10.00
2018-09-13T20:21:13.295Z,8.90
2018-09-13T20:22:13.095Z,10.00
2018-09-13T20:23:13.188Z,7.60
2018-09-13T20:24:13.042Z,8.50
2018-09-13T20:25:13.125Z,10.30
2018-09-13T20:26:12.999Z,9.10
2018-09-13T20:27:15.136Z,9.50
2018-09-13T20:31:04.114Z,10.30
2018-09-13T20:32:05.204Z,7.70
2018-09-13T20:33:04.090Z,9.50
2018-09-13T20:34:04.045Z,9.50
2018-09-13T20:35:04.069Z,8.90
2018-09-13T20:36:04.104Z,10.50
2018-09-13T20:37:05.257Z,8.30
2018-09-13T20:38:03.971Z,9.60
2018-09-13T20:39:04.281Z,9.10
2018-09-13T20:40:03.895Z,9.00
2018-09-13T20:41:10.663Z,7.80
2018-09-13T20:42:03.854Z,9.10
2018-09-13T20:43:18.652Z,11.40
2018-09-13T20:44:03.784Z,8.50
2018-09-13T20:45:10.765Z,9.90
2018-09-13T20:46:03.756Z,7.80
2018-09-13T20:47:35.676Z,8.40
2018-09-13T20:48:03.678Z,8.40
2018-09-13T20:49:24.656Z,11.00
2018-09-13T20:50:03.647Z,10.20
2018-09-13T20:51:25.674Z,9.80
2018-09-13T20:52:03.619Z,8.50
2018-09-13T20:53:03.676Z,8.80
2018-09-13T20:54:03.542Z,9.50
2018-09-13T20:55:27.131Z,9.60
2018-09-13T20:56:03.483Z,11.50
2018-09-13T20:57:05.647Z,8.90
2018-09-13T20:58:03.432Z,10.40
2018-09-13T21:17:30.409Z,17.40
2018-09-13T21:18:30.363Z,14.30
2018-09-13T21:19:30.272Z,14.10
2018-09-13T21:20:32.407Z,13.00
2018-09-13T21:21:30.219Z,13.20
2018-09-13T21:22:30.295Z,14.40
2018-09-13T21:23:30.168Z,11.00
2018-09-13T21:24:35.128Z,11.70
2018-09-13T21:25:30.146Z,12.90
2018-09-13T21:26:43.111Z,13.50
2018-09-13T21:27:30.079Z,13.30
2018-09-13T21:28:34.628Z,12.70
2018-09-13T21:29:30.027Z,13.50
2018-09-13T21:30:34.664Z,11.10
2018-09-13T21:31:29.961Z,12.40
2018-09-13T21:32:30.976Z,16.60
2018-09-13T21:33:29.933Z,13.20
2018-09-13T21:34:29.901Z,10.80
2018-09-13T21:35:30.884Z,12.70
2018-09-13T21:36:29.854Z,13.00
2018-09-13T21:37:29.810Z,12.30
2018-09-13T21:38:31.846Z,13.80
2018-09-13T21:39:29.758Z,12.30
2018-09-13T21:40:29.818Z,13.50
2018-09-13T21:41:29.712Z,15.20
2018-09-13T21:42:30.728Z,12.70
2018-09-13T21:43:29.666Z,13.60
2018-09-13T21:44:29.787Z,12.60
2018-09-13T21:45:29.611Z,12.10
2018-09-13T21:46:29.637Z,11.80
2018-09-13T21:47:29.562Z,11.30
2018-09-13T21:48:29.668Z,11.60
2018-09-13T21:49:29.520Z,11.20
2018-09-13T21:50:29.565Z,12.20
2018-09-13T21:51:29.482Z,11.40
2018-09-13T21:57:55.899Z,13.10
2018-09-13T21:58:54.656Z,11.50
2018-09-13T22:00:16.684Z,11.10
2018-09-13T22:00:54.573Z,14.20
2018-09-13T22:02:26.607Z,12.20
2018-09-13T22:02:54.561Z,11.10
2018-09-13T22:04:23.463Z,12.30
2018-09-13T22:04:54.477Z,13.70
2018-09-13T22:21:57.333Z,14.70
2018-09-13T22:22:55.167Z,12.70
2018-09-13T22:24:00.055Z,11.00
2018-09-13T22:24:55.102Z,11.80
2018-09-13T22:26:33.028Z,13.40